sensor_id;sensor_type;location;lat;lon;timestamp;P1;durP1;ratioP1;P2;durP2;ratioP2
9854;SDS011;4966;48.112;9.282;2024-02-21T00:01:02;5.53;;;2.25;;
9854;SDS011;4966;48.112;9.282;2024-02-21T00:03:29;8.80;;;2.30;;
9854;SDS011;4966;48.112;9.282;2024-02-21T00:05:54;4.80;;;1.73;;
9854;SDS011;4966;48.112;9.282;2024-02-21T00:08:19;6.10;;;2.40;;
9854;SDS011;4966;48.112;9.282;2024-02-21T00:10:45;8.18;;;2.22;;
9854;SDS011;4966;48.112;9.282;2024-02-21T00:13:10;7.78;;;2.17;;
9854;SDS011;4966;48.112;9.282;2024-02-21T00:15:35;6.38;;;2.90;;
9854;SDS011;4966;48.112;9.282;2024-02-21T00:18:01;7.90;;;2.20;;
9854;SDS011;4966;48.112;9.282;2024-02-21T00:20:26;7.82;;;2.58;;
9854;SDS011;4966;48.112;9.282;2024-02-21T00:22:51;5.00;;;2.20;;
9854;SDS011;4966;48.112;9.282;2024-02-21T00:25:17;5.57;;;2.17;;
9854;SDS011;4966;48.112;9.282;2024-02-21T00:27:43;9.85;;;2.75;;
9854;SDS011;4966;48.112;9.282;2024-02-21T00:30:08;5.90;;;2.80;;
9854;SDS011;4966;48.112;9.282;2024-02-21T00:32:34;12.27;;;2.72;;
9854;SDS011;4966;48.112;9.282;2024-02-21T00:35:00;6.85;;;2.13;;
9854;SDS011;4966;48.112;9.282;2024-02-21T00:37:26;8.20;;;2.10;;
9854;SDS011;4966;48.112;9.282;2024-02-21T00:39:51;6.82;;;1.85;;
9854;SDS011;4966;48.112;9.282;2024-02-21T00:42:17;7.47;;;2.03;;
9854;SDS011;4966;48.112;9.282;2024-02-21T00:44:43;5.22;;;1.95;;
9854;SDS011;4966;48.112;9.282;2024-02-21T00:47:10;8.52;;;2.30;;
9854;SDS011;4966;48.112;9.282;2024-02-21T00:49:35;3.97;;;1.98;;
9854;SDS011;4966;48.112;9.282;2024-02-21T00:52:00;6.82;;;2.45;;
9854;SDS011;4966;48.112;9.282;2024-02-21T00:54:26;7.70;;;2.30;;
9854;SDS011;4966;48.112;9.282;2024-02-21T00:56:51;6.72;;;2.10;;
9854;SDS011;4966;48.112;9.282;2024-02-21T00:59:16;10.25;;;2.40;;
9854;SDS011;4966;48.112;9.282;2024-02-21T01:01:42;4.85;;;2.13;;
9854;SDS011;4966;48.112;9.282;2024-02-21T01:04:08;9.05;;;2.70;;
9854;SDS011;4966;48.112;9.282;2024-02-21T01:06:34;10.43;;;2.38;;
9854;SDS011;4966;48.112;9.282;2024-02-21T01:08:59;10.30;;;2.30;;
9854;SDS011;4966;48.112;9.282;2024-02-21T01:11:25;5.93;;;2.10;;
9854;SDS011;4966;48.112;9.282;2024-02-21T01:13:50;8.25;;;2.72;;
9854;SDS011;4966;48.112;9.282;2024-02-21T01:16:15;5.55;;;2.60;;
9854;SDS011;4966;48.112;9.282;2024-02-21T01:18:40;7.05;;;2.70;;
9854;SDS011;4966;48.112;9.282;2024-02-21T01:21:06;5.65;;;2.33;;
9854;SDS011;4966;48.112;9.282;2024-02-21T01:23:32;5.03;;;2.45;;
9854;SDS011;4966;48.112;9.282;2024-02-21T01:26:00;6.40;;;2.10;;
9854;SDS011;4966;48.112;9.282;2024-02-21T01:28:25;10.32;;;2.42;;
9854;SDS011;4966;48.112;9.282;2024-02-21T01:30:50;7.22;;;2.22;;
9854;SDS011;4966;48.112;9.282;2024-02-21T01:33:16;6.50;;;2.78;;
9854;SDS011;4966;48.112;9.282;2024-02-21T01:35:42;7.75;;;2.70;;
9854;SDS011;4966;48.112;9.282;2024-02-21T01:38:07;7.72;;;2.88;;
9854;SDS011;4966;48.112;9.282;2024-02-21T01:40:33;4.82;;;2.33;;
9854;SDS011;4966;48.112;9.282;2024-02-21T01:42:58;6.40;;;2.50;;
9854;SDS011;4966;48.112;9.282;2024-02-21T01:45:23;5.63;;;2.38;;
9854;SDS011;4966;48.112;9.282;2024-02-21T01:47:49;8.13;;;2.47;;
9854;SDS011;4966;48.112;9.282;2024-02-21T01:50:15;9.20;;;3.00;;
9854;SDS011;4966;48.112;9.282;2024-02-21T01:52:42;8.95;;;2.70;;
9854;SDS011;4966;48.112;9.282;2024-02-21T01:55:11;6.35;;;2.55;;
9854;SDS011;4966;48.112;9.282;2024-02-21T01:57:39;6.57;;;2.40;;
9854;SDS011;4966;48.112;9.282;2024-02-21T02:00:06;7.65;;;2.92;;
9854;SDS011;4966;48.112;9.282;2024-02-21T02:02:32;6.18;;;2.78;;
9854;SDS011;4966;48.112;9.282;2024-02-21T02:04:57;7.75;;;2.63;;
9854;SDS011;4966;48.112;9.282;2024-02-21T02:07:24;6.25;;;2.50;;
9854;SDS011;4966;48.112;9.282;2024-02-21T02:09:49;9.65;;;2.67;;
9854;SDS011;4966;48.112;9.282;2024-02-21T02:12:15;6.20;;;2.50;;
9854;SDS011;4966;48.112;9.282;2024-02-21T02:14:40;9.63;;;2.33;;
9854;SDS011;4966;48.112;9.282;2024-02-21T02:17:05;8.75;;;2.25;;
9854;SDS011;4966;48.112;9.282;2024-02-21T02:19:31;8.75;;;2.58;;
9854;SDS011;4966;48.112;9.282;2024-02-21T02:22:00;9.55;;;2.30;;
9854;SDS011;4966;48.112;9.282;2024-02-21T02:24:34;5.47;;;2.17;;
9854;SDS011;4966;48.112;9.282;2024-02-21T02:26:59;5.97;;;2.05;;
9854;SDS011;4966;48.112;9.282;2024-02-21T02:29:25;8.18;;;2.85;;
9854;SDS011;4966;48.112;9.282;2024-02-21T02:31:50;6.72;;;2.78;;
9854;SDS011;4966;48.112;9.282;2024-02-21T02:34:16;7.25;;;2.60;;
9854;SDS011;4966;48.112;9.282;2024-02-21T02:36:41;6.70;;;2.38;;
9854;SDS011;4966;48.112;9.282;2024-02-21T02:39:06;8.00;;;2.42;;
9854;SDS011;4966;48.112;9.282;2024-02-21T02:41:34;9.95;;;2.58;;
9854;SDS011;4966;48.112;9.282;2024-02-21T02:44:00;6.45;;;2.92;;
9854;SDS011;4966;48.112;9.282;2024-02-21T02:46:26;6.32;;;2.78;;
9854;SDS011;4966;48.112;9.282;2024-02-21T02:48:51;7.07;;;2.55;;
9854;SDS011;4966;48.112;9.282;2024-02-21T02:51:16;11.80;;;3.35;;
9854;SDS011;4966;48.112;9.282;2024-02-21T02:53:42;6.28;;;2.95;;
9854;SDS011;4966;48.112;9.282;2024-02-21T02:56:07;6.18;;;2.75;;
9854;SDS011;4966;48.112;9.282;2024-02-21T02:58:32;8.43;;;3.20;;
9854;SDS011;4966;48.112;9.282;2024-02-21T03:00:58;8.88;;;2.72;;
9854;SDS011;4966;48.112;9.282;2024-02-21T03:03:23;8.20;;;3.20;;
9854;SDS011;4966;48.112;9.282;2024-02-21T03:05:49;7.57;;;3.05;;
9854;SDS011;4966;48.112;9.282;2024-02-21T03:08:14;5.82;;;2.17;;
9854;SDS011;4966;48.112;9.282;2024-02-21T03:10:40;6.25;;;2.60;;
9854;SDS011;4966;48.112;9.282;2024-02-21T03:13:06;7.60;;;2.60;;
9854;SDS011;4966;48.112;9.282;2024-02-21T03:15:31;8.80;;;2.70;;
9854;SDS011;4966;48.112;9.282;2024-02-21T03:17:56;9.38;;;2.40;;
9854;SDS011;4966;48.112;9.282;2024-02-21T03:20:22;5.85;;;2.50;;
9854;SDS011;4966;48.112;9.282;2024-02-21T03:22:47;7.95;;;2.65;;
9854;SDS011;4966;48.112;9.282;2024-02-21T03:25:12;7.10;;;2.47;;
9854;SDS011;4966;48.112;9.282;2024-02-21T03:27:39;8.98;;;2.83;;
9854;SDS011;4966;48.112;9.282;2024-02-21T03:30:04;6.80;;;2.20;;
9854;SDS011;4966;48.112;9.282;2024-02-21T03:32:30;8.35;;;2.25;;
9854;SDS011;4966;48.112;9.282;2024-02-21T03:34:55;6.30;;;2.80;;
9854;SDS011;4966;48.112;9.282;2024-02-21T03:37:21;5.43;;;2.50;;
9854;SDS011;4966;48.112;9.282;2024-02-21T03:39:46;7.18;;;2.75;;
9854;SDS011;4966;48.112;9.282;2024-02-21T03:42:12;5.50;;;2.42;;
9854;SDS011;4966;48.112;9.282;2024-02-21T03:44:37;5.53;;;2.33;;
9854;SDS011;4966;48.112;9.282;2024-02-21T03:47:02;5.78;;;2.50;;
9854;SDS011;4966;48.112;9.282;2024-02-21T03:49:28;5.22;;;2.60;;
9854;SDS011;4966;48.112;9.282;2024-02-21T03:51:53;4.78;;;2.25;;
9854;SDS011;4966;48.112;9.282;2024-02-21T03:54:19;4.82;;;2.35;;
9854;SDS011;4966;48.112;9.282;2024-02-21T03:56:45;6.88;;;2.75;;
9854;SDS011;4966;48.112;9.282;2024-02-21T03:59:12;8.45;;;2.58;;
9854;SDS011;4966;48.112;9.282;2024-02-21T04:01:37;8.35;;;2.88;;
9854;SDS011;4966;48.112;9.282;2024-02-21T04:04:03;5.88;;;2.25;;
9854;SDS011;4966;48.112;9.282;2024-02-21T04:06:28;7.35;;;2.63;;
9854;SDS011;4966;48.112;9.282;2024-02-21T04:08:54;6.75;;;2.70;;
9854;SDS011;4966;48.112;9.282;2024-02-21T04:11:19;7.25;;;2.60;;
9854;SDS011;4966;48.112;9.282;2024-02-21T04:13:45;7.07;;;2.58;;
9854;SDS011;4966;48.112;9.282;2024-02-21T04:16:13;6.43;;;2.40;;
9854;SDS011;4966;48.112;9.282;2024-02-21T04:18:39;6.05;;;2.40;;
9854;SDS011;4966;48.112;9.282;2024-02-21T04:21:05;7.05;;;2.50;;
9854;SDS011;4966;48.112;9.282;2024-02-21T04:23:30;5.05;;;2.22;;
9854;SDS011;4966;48.112;9.282;2024-02-21T04:25:55;8.98;;;2.67;;
9854;SDS011;4966;48.112;9.282;2024-02-21T04:28:21;8.25;;;2.33;;
9854;SDS011;4966;48.112;9.282;2024-02-21T04:30:46;6.97;;;2.20;;
9854;SDS011;4966;48.112;9.282;2024-02-21T04:33:11;13.57;;;2.40;;
9854;SDS011;4966;48.112;9.282;2024-02-21T04:35:37;4.82;;;2.22;;
9854;SDS011;4966;48.112;9.282;2024-02-21T04:38:03;7.97;;;2.58;;
9854;SDS011;4966;48.112;9.282;2024-02-21T04:40:29;8.07;;;2.30;;
9854;SDS011;4966;48.112;9.282;2024-02-21T04:42:54;7.43;;;2.50;;
9854;SDS011;4966;48.112;9.282;2024-02-21T04:45:19;6.88;;;2.25;;
9854;SDS011;4966;48.112;9.282;2024-02-21T04:47:44;8.85;;;2.80;;
9854;SDS011;4966;48.112;9.282;2024-02-21T04:50:10;7.72;;;2.47;;
9854;SDS011;4966;48.112;9.282;2024-02-21T04:52:35;6.28;;;2.15;;
9854;SDS011;4966;48.112;9.282;2024-02-21T04:55:01;9.43;;;2.72;;
9854;SDS011;4966;48.112;9.282;2024-02-21T04:57:26;7.30;;;2.75;;
9854;SDS011;4966;48.112;9.282;2024-02-21T04:59:51;10.07;;;2.35;;
9854;SDS011;4966;48.112;9.282;2024-02-21T05:02:17;8.80;;;2.67;;
9854;SDS011;4966;48.112;9.282;2024-02-21T05:04:44;6.03;;;2.30;;
9854;SDS011;4966;48.112;9.282;2024-02-21T05:07:09;5.00;;;2.20;;
9854;SDS011;4966;48.112;9.282;2024-02-21T05:09:36;7.18;;;2.80;;
9854;SDS011;4966;48.112;9.282;2024-02-21T05:12:02;8.13;;;2.65;;
9854;SDS011;4966;48.112;9.282;2024-02-21T05:14:28;7.95;;;2.58;;
9854;SDS011;4966;48.112;9.282;2024-02-21T05:16:53;9.02;;;2.75;;
9854;SDS011;4966;48.112;9.282;2024-02-21T05:19:18;5.55;;;2.22;;
9854;SDS011;4966;48.112;9.282;2024-02-21T05:21:44;5.60;;;2.33;;
9854;SDS011;4966;48.112;9.282;2024-02-21T05:24:09;6.20;;;2.40;;
9854;SDS011;4966;48.112;9.282;2024-02-21T05:26:35;5.70;;;2.35;;
9854;SDS011;4966;48.112;9.282;2024-02-21T05:29:00;6.45;;;2.22;;
9854;SDS011;4966;48.112;9.282;2024-02-21T05:31:26;4.05;;;1.80;;
9854;SDS011;4966;48.112;9.282;2024-02-21T05:33:56;5.80;;;1.92;;
9854;SDS011;4966;48.112;9.282;2024-02-21T05:36:22;5.35;;;2.00;;
9854;SDS011;4966;48.112;9.282;2024-02-21T05:38:47;6.25;;;2.35;;
9854;SDS011;4966;48.112;9.282;2024-02-21T05:41:12;4.65;;;2.08;;
9854;SDS011;4966;48.112;9.282;2024-02-21T05:43:38;6.07;;;3.08;;
9854;SDS011;4966;48.112;9.282;2024-02-21T05:46:03;6.20;;;2.60;;
9854;SDS011;4966;48.112;9.282;2024-02-21T05:48:28;6.13;;;2.15;;
9854;SDS011;4966;48.112;9.282;2024-02-21T05:50:54;7.18;;;2.42;;
9854;SDS011;4966;48.112;9.282;2024-02-21T05:53:19;5.05;;;2.03;;
9854;SDS011;4966;48.112;9.282;2024-02-21T05:55:44;10.15;;;2.15;;
9854;SDS011;4966;48.112;9.282;2024-02-21T05:58:10;5.28;;;2.45;;
9854;SDS011;4966;48.112;9.282;2024-02-21T06:00:38;12.90;;;3.28;;
9854;SDS011;4966;48.112;9.282;2024-02-21T06:03:04;10.15;;;2.97;;
9854;SDS011;4966;48.112;9.282;2024-02-21T06:05:29;5.80;;;2.58;;
9854;SDS011;4966;48.112;9.282;2024-02-21T06:07:56;6.35;;;2.17;;
9854;SDS011;4966;48.112;9.282;2024-02-21T06:10:21;7.40;;;2.67;;
9854;SDS011;4966;48.112;9.282;2024-02-21T06:12:46;8.40;;;2.28;;
9854;SDS011;4966;48.112;9.282;2024-02-21T06:15:12;5.50;;;2.30;;
9854;SDS011;4966;48.112;9.282;2024-02-21T06:17:37;9.93;;;2.30;;
9854;SDS011;4966;48.112;9.282;2024-02-21T06:20:02;6.97;;;2.55;;
9854;SDS011;4966;48.112;9.282;2024-02-21T06:22:28;7.68;;;2.55;;
9854;SDS011;4966;48.112;9.282;2024-02-21T06:24:55;6.50;;;2.38;;
9854;SDS011;4966;48.112;9.282;2024-02-21T06:27:20;6.28;;;2.00;;
9854;SDS011;4966;48.112;9.282;2024-02-21T06:29:45;9.05;;;2.47;;
9854;SDS011;4966;48.112;9.282;2024-02-21T06:32:11;8.68;;;2.42;;
9854;SDS011;4966;48.112;9.282;2024-02-21T06:34:36;10.73;;;2.60;;
9854;SDS011;4966;48.112;9.282;2024-02-21T06:37:01;6.95;;;2.80;;
9854;SDS011;4966;48.112;9.282;2024-02-21T06:39:27;8.90;;;3.15;;
9854;SDS011;4966;48.112;9.282;2024-02-21T06:41:54;9.55;;;3.65;;
9854;SDS011;4966;48.112;9.282;2024-02-21T06:44:21;14.85;;;4.20;;
9854;SDS011;4966;48.112;9.282;2024-02-21T06:46:46;12.07;;;2.95;;
9854;SDS011;4966;48.112;9.282;2024-02-21T06:49:12;7.40;;;3.10;;
9854;SDS011;4966;48.112;9.282;2024-02-21T06:51:43;10.15;;;3.10;;
9854;SDS011;4966;48.112;9.282;2024-02-21T06:54:09;6.97;;;3.00;;
9854;SDS011;4966;48.112;9.282;2024-02-21T06:56:35;9.73;;;3.28;;
9854;SDS011;4966;48.112;9.282;2024-02-21T07:01:38;6.82;;;3.00;;
9854;SDS011;4966;48.112;9.282;2024-02-21T07:04:03;8.60;;;3.10;;
9854;SDS011;4966;48.112;9.282;2024-02-21T07:06:29;7.63;;;3.10;;
9854;SDS011;4966;48.112;9.282;2024-02-21T07:08:56;9.57;;;3.00;;
9854;SDS011;4966;48.112;9.282;2024-02-21T07:11:21;8.15;;;3.15;;
9854;SDS011;4966;48.112;9.282;2024-02-21T07:13:46;8.32;;;2.58;;
9854;SDS011;4966;48.112;9.282;2024-02-21T07:16:12;9.43;;;3.83;;
9854;SDS011;4966;48.112;9.282;2024-02-21T07:18:37;7.50;;;3.30;;
9854;SDS011;4966;48.112;9.282;2024-02-21T07:21:02;6.55;;;3.00;;
9854;SDS011;4966;48.112;9.282;2024-02-21T07:23:28;10.80;;;2.90;;
9854;SDS011;4966;48.112;9.282;2024-02-21T07:25:53;8.20;;;3.40;;
9854;SDS011;4966;48.112;9.282;2024-02-21T07:28:18;7.82;;;2.72;;
9854;SDS011;4966;48.112;9.282;2024-02-21T07:30:44;10.38;;;3.00;;
9854;SDS011;4966;48.112;9.282;2024-02-21T07:33:09;10.68;;;3.50;;
9854;SDS011;4966;48.112;9.282;2024-02-21T07:35:35;10.18;;;3.97;;
9854;SDS011;4966;48.112;9.282;2024-02-21T07:38:03;12.57;;;4.10;;
9854;SDS011;4966;48.112;9.282;2024-02-21T07:40:29;16.35;;;5.28;;
9854;SDS011;4966;48.112;9.282;2024-02-21T07:42:55;11.13;;;4.32;;
9854;SDS011;4966;48.112;9.282;2024-02-21T07:45:20;10.52;;;3.42;;
9854;SDS011;4966;48.112;9.282;2024-02-21T07:47:48;11.13;;;4.00;;
9854;SDS011;4966;48.112;9.282;2024-02-21T07:50:14;8.48;;;3.60;;
9854;SDS011;4966;48.112;9.282;2024-02-21T07:52:39;13.88;;;3.97;;
9854;SDS011;4966;48.112;9.282;2024-02-21T07:55:05;10.05;;;4.38;;
9854;SDS011;4966;48.112;9.282;2024-02-21T07:57:30;13.25;;;4.60;;
9854;SDS011;4966;48.112;9.282;2024-02-21T07:59:55;11.50;;;4.13;;
9854;SDS011;4966;48.112;9.282;2024-02-21T08:02:21;21.65;;;10.38;;
9854;SDS011;4966;48.112;9.282;2024-02-21T08:04:46;11.02;;;5.72;;
9854;SDS011;4966;48.112;9.282;2024-02-21T08:07:11;12.18;;;5.15;;
9854;SDS011;4966;48.112;9.282;2024-02-21T08:09:39;11.48;;;5.10;;
9854;SDS011;4966;48.112;9.282;2024-02-21T08:12:05;11.02;;;4.93;;
9854;SDS011;4966;48.112;9.282;2024-02-21T08:14:30;12.90;;;5.43;;
9854;SDS011;4966;48.112;9.282;2024-02-21T08:16:56;13.30;;;5.22;;
9854;SDS011;4966;48.112;9.282;2024-02-21T08:19:21;9.80;;;4.75;;
9854;SDS011;4966;48.112;9.282;2024-02-21T08:21:49;14.43;;;5.00;;
9854;SDS011;4966;48.112;9.282;2024-02-21T08:24:15;13.00;;;4.97;;
9854;SDS011;4966;48.112;9.282;2024-02-21T08:26:40;11.20;;;4.32;;
9854;SDS011;4966;48.112;9.282;2024-02-21T08:29:06;11.68;;;5.22;;
9854;SDS011;4966;48.112;9.282;2024-02-21T08:31:32;12.18;;;4.95;;
9854;SDS011;4966;48.112;9.282;2024-02-21T08:33:57;11.82;;;4.30;;
9854;SDS011;4966;48.112;9.282;2024-02-21T08:36:27;10.20;;;4.93;;
9854;SDS011;4966;48.112;9.282;2024-02-21T08:38:54;9.90;;;4.95;;
9854;SDS011;4966;48.112;9.282;2024-02-21T08:41:20;13.57;;;5.10;;
9854;SDS011;4966;48.112;9.282;2024-02-21T08:43:48;11.60;;;5.13;;
9854;SDS011;4966;48.112;9.282;2024-02-21T08:46:13;11.85;;;4.80;;
9854;SDS011;4966;48.112;9.282;2024-02-21T08:48:38;10.57;;;4.90;;
9854;SDS011;4966;48.112;9.282;2024-02-21T08:51:03;11.52;;;5.32;;
9854;SDS011;4966;48.112;9.282;2024-02-21T08:53:29;11.32;;;5.03;;
9854;SDS011;4966;48.112;9.282;2024-02-21T08:55:54;14.82;;;5.18;;
9854;SDS011;4966;48.112;9.282;2024-02-21T08:58:20;13.82;;;4.90;;
9854;SDS011;4966;48.112;9.282;2024-02-21T09:00:45;11.25;;;4.85;;
9854;SDS011;4966;48.112;9.282;2024-02-21T09:03:10;11.32;;;4.95;;
9854;SDS011;4966;48.112;9.282;2024-02-21T09:05:35;13.75;;;4.57;;
9854;SDS011;4966;48.112;9.282;2024-02-21T09:08:01;13.85;;;4.50;;
9854;SDS011;4966;48.112;9.282;2024-02-21T09:10:26;10.68;;;4.43;;
9854;SDS011;4966;48.112;9.282;2024-02-21T09:12:51;11.38;;;4.90;;
9854;SDS011;4966;48.112;9.282;2024-02-21T09:15:17;11.85;;;4.18;;
9854;SDS011;4966;48.112;9.282;2024-02-21T09:17:42;10.75;;;4.03;;
9854;SDS011;4966;48.112;9.282;2024-02-21T09:20:07;10.13;;;4.47;;
9854;SDS011;4966;48.112;9.282;2024-02-21T09:22:34;16.00;;;4.57;;
9854;SDS011;4966;48.112;9.282;2024-02-21T09:25:01;11.50;;;4.72;;
9854;SDS011;4966;48.112;9.282;2024-02-21T09:27:28;7.43;;;3.08;;
9854;SDS011;4966;48.112;9.282;2024-02-21T09:29:53;8.95;;;2.72;;
9854;SDS011;4966;48.112;9.282;2024-02-21T09:32:19;6.90;;;2.53;;
9854;SDS011;4966;48.112;9.282;2024-02-21T09:34:44;8.48;;;2.25;;
9854;SDS011;4966;48.112;9.282;2024-02-21T09:37:10;8.55;;;2.70;;
9854;SDS011;4966;48.112;9.282;2024-02-21T09:39:35;9.38;;;2.78;;
9854;SDS011;4966;48.112;9.282;2024-02-21T09:42:03;7.22;;;2.10;;
9854;SDS011;4966;48.112;9.282;2024-02-21T09:44:33;6.32;;;2.75;;
9854;SDS011;4966;48.112;9.282;2024-02-21T09:47:04;5.57;;;2.20;;
9854;SDS011;4966;48.112;9.282;2024-02-21T09:49:35;4.13;;;2.03;;
9854;SDS011;4966;48.112;9.282;2024-02-21T09:52:04;6.05;;;2.28;;
9854;SDS011;4966;48.112;9.282;2024-02-21T09:54:31;6.43;;;1.98;;
9854;SDS011;4966;48.112;9.282;2024-02-21T09:56:58;5.55;;;1.90;;
9854;SDS011;4966;48.112;9.282;2024-02-21T09:59:24;4.28;;;1.60;;
9854;SDS011;4966;48.112;9.282;2024-02-21T10:01:52;4.35;;;1.95;;
9854;SDS011;4966;48.112;9.282;2024-02-21T10:04:19;5.38;;;1.70;;
9854;SDS011;4966;48.112;9.282;2024-02-21T10:06:45;5.78;;;1.83;;
9854;SDS011;4966;48.112;9.282;2024-02-21T10:09:20;4.60;;;1.67;;
9854;SDS011;4966;48.112;9.282;2024-02-21T10:11:47;6.55;;;1.75;;
9854;SDS011;4966;48.112;9.282;2024-02-21T10:14:13;3.65;;;1.77;;
9854;SDS011;4966;48.112;9.282;2024-02-21T10:16:40;3.33;;;1.80;;
9854;SDS011;4966;48.112;9.282;2024-02-21T10:19:05;3.60;;;1.90;;
9854;SDS011;4966;48.112;9.282;2024-02-21T10:21:31;4.72;;;1.90;;
9854;SDS011;4966;48.112;9.282;2024-02-21T10:23:56;5.80;;;1.80;;
9854;SDS011;4966;48.112;9.282;2024-02-21T10:26:21;6.55;;;2.13;;
9854;SDS011;4966;48.112;9.282;2024-02-21T10:28:47;3.53;;;1.40;;
9854;SDS011;4966;48.112;9.282;2024-02-21T10:31:31;3.92;;;1.73;;
9854;SDS011;4966;48.112;9.282;2024-02-21T10:33:57;4.13;;;2.10;;
9854;SDS011;4966;48.112;9.282;2024-02-21T10:36:23;6.35;;;2.00;;
9854;SDS011;4966;48.112;9.282;2024-02-21T10:38:52;4.85;;;1.60;;
9854;SDS011;4966;48.112;9.282;2024-02-21T10:41:19;2.95;;;1.50;;
9854;SDS011;4966;48.112;9.282;2024-02-21T10:43:46;6.00;;;1.95;;
9854;SDS011;4966;48.112;9.282;2024-02-21T10:46:20;4.47;;;1.80;;
9854;SDS011;4966;48.112;9.282;2024-02-21T10:48:48;5.20;;;1.60;;
9854;SDS011;4966;48.112;9.282;2024-02-21T10:51:37;3.00;;;1.25;;
9854;SDS011;4966;48.112;9.282;2024-02-21T10:54:13;4.85;;;1.75;;
9854;SDS011;4966;48.112;9.282;2024-02-21T10:56:38;3.97;;;1.58;;
9854;SDS011;4966;48.112;9.282;2024-02-21T10:59:06;4.47;;;1.40;;
9854;SDS011;4966;48.112;9.282;2024-02-21T11:01:32;3.55;;;1.42;;
9854;SDS011;4966;48.112;9.282;2024-02-21T11:04:07;4.32;;;0.95;;
9854;SDS011;4966;48.112;9.282;2024-02-21T11:06:34;3.75;;;1.00;;
9854;SDS011;4966;48.112;9.282;2024-02-21T11:09:08;2.08;;;0.98;;
9854;SDS011;4966;48.112;9.282;2024-02-21T11:11:35;2.78;;;1.10;;
9854;SDS011;4966;48.112;9.282;2024-02-21T11:14:06;2.47;;;1.20;;
9854;SDS011;4966;48.112;9.282;2024-02-21T11:16:38;2.20;;;0.90;;
9854;SDS011;4966;48.112;9.282;2024-02-21T11:19:18;1.75;;;0.88;;
9854;SDS011;4966;48.112;9.282;2024-02-21T11:21:48;4.80;;;1.38;;
9854;SDS011;4966;48.112;9.282;2024-02-21T11:24:14;2.22;;;0.88;;
9854;SDS011;4966;48.112;9.282;2024-02-21T11:26:51;2.58;;;1.25;;
9854;SDS011;4966;48.112;9.282;2024-02-21T11:29:22;2.78;;;0.63;;
9854;SDS011;4966;48.112;9.282;2024-02-21T11:31:49;1.55;;;0.70;;
9854;SDS011;4966;48.112;9.282;2024-02-21T11:34:17;2.25;;;0.88;;
9854;SDS011;4966;48.112;9.282;2024-02-21T11:36:47;2.00;;;0.85;;
9854;SDS011;4966;48.112;9.282;2024-02-21T11:39:32;2.67;;;0.60;;
9854;SDS011;4966;48.112;9.282;2024-02-21T11:42:01;4.90;;;0.80;;
9854;SDS011;4966;48.112;9.282;2024-02-21T11:44:28;3.03;;;1.40;;
9854;SDS011;4966;48.112;9.282;2024-02-21T11:46:54;3.28;;;1.38;;
9854;SDS011;4966;48.112;9.282;2024-02-21T11:49:20;1.73;;;0.60;;
9854;SDS011;4966;48.112;9.282;2024-02-21T11:51:45;2.30;;;0.80;;
9854;SDS011;4966;48.112;9.282;2024-02-21T11:54:11;6.82;;;1.13;;
9854;SDS011;4966;48.112;9.282;2024-02-21T11:56:38;2.00;;;0.82;;
9854;SDS011;4966;48.112;9.282;2024-02-21T11:59:03;2.33;;;0.90;;
9854;SDS011;4966;48.112;9.282;2024-02-21T12:01:31;2.42;;;0.68;;
9854;SDS011;4966;48.112;9.282;2024-02-21T12:03:57;1.77;;;0.80;;
9854;SDS011;4966;48.112;9.282;2024-02-21T12:06:22;2.28;;;0.90;;
9854;SDS011;4966;48.112;9.282;2024-02-21T12:08:47;5.00;;;1.00;;
9854;SDS011;4966;48.112;9.282;2024-02-21T12:11:20;3.13;;;1.10;;
9854;SDS011;4966;48.112;9.282;2024-02-21T12:13:46;4.10;;;1.15;;
9854;SDS011;4966;48.112;9.282;2024-02-21T12:16:14;4.47;;;1.27;;
9854;SDS011;4966;48.112;9.282;2024-02-21T12:18:40;4.65;;;1.20;;
9854;SDS011;4966;48.112;9.282;2024-02-21T12:21:05;4.05;;;1.40;;
9854;SDS011;4966;48.112;9.282;2024-02-21T12:23:30;6.15;;;1.50;;
9854;SDS011;4966;48.112;9.282;2024-02-21T12:25:56;3.42;;;1.45;;
9854;SDS011;4966;48.112;9.282;2024-02-21T12:28:21;2.47;;;1.02;;
9854;SDS011;4966;48.112;9.282;2024-02-21T12:30:47;3.08;;;1.52;;
9854;SDS011;4966;48.112;9.282;2024-02-21T12:33:12;3.50;;;1.25;;
9854;SDS011;4966;48.112;9.282;2024-02-21T12:35:39;2.72;;;1.20;;
9854;SDS011;4966;48.112;9.282;2024-02-21T12:38:04;4.07;;;1.35;;
9854;SDS011;4966;48.112;9.282;2024-02-21T12:40:30;5.00;;;1.10;;
9854;SDS011;4966;48.112;9.282;2024-02-21T12:42:58;3.60;;;1.63;;
9854;SDS011;4966;48.112;9.282;2024-02-21T12:45:24;2.28;;;1.00;;
9854;SDS011;4966;48.112;9.282;2024-02-21T12:47:50;3.22;;;1.15;;
9854;SDS011;4966;48.112;9.282;2024-02-21T12:50:15;5.10;;;1.20;;
9854;SDS011;4966;48.112;9.282;2024-02-21T12:52:40;3.78;;;1.15;;
9854;SDS011;4966;48.112;9.282;2024-02-21T12:55:06;5.97;;;2.10;;
9854;SDS011;4966;48.112;9.282;2024-02-21T12:57:31;2.90;;;0.90;;
9854;SDS011;4966;48.112;9.282;2024-02-21T12:59:57;2.20;;;1.10;;
9854;SDS011;4966;48.112;9.282;2024-02-21T13:02:22;2.75;;;1.00;;
9854;SDS011;4966;48.112;9.282;2024-02-21T13:04:47;5.28;;;2.95;;
9854;SDS011;4966;48.112;9.282;2024-02-21T13:07:13;2.47;;;1.20;;
9854;SDS011;4966;48.112;9.282;2024-02-21T13:09:38;3.50;;;1.40;;
9854;SDS011;4966;48.112;9.282;2024-02-21T13:12:04;3.63;;;1.50;;
9854;SDS011;4966;48.112;9.282;2024-02-21T13:14:30;3.28;;;1.52;;
9854;SDS011;4966;48.112;9.282;2024-02-21T13:16:58;3.33;;;1.42;;
9854;SDS011;4966;48.112;9.282;2024-02-21T13:19:23;5.25;;;2.03;;
9854;SDS011;4966;48.112;9.282;2024-02-21T13:21:48;5.97;;;1.38;;
9854;SDS011;4966;48.112;9.282;2024-02-21T13:24:13;2.50;;;1.10;;
9854;SDS011;4966;48.112;9.282;2024-02-21T13:26:39;3.95;;;1.13;;
9854;SDS011;4966;48.112;9.282;2024-02-21T13:29:04;2.47;;;1.13;;
9854;SDS011;4966;48.112;9.282;2024-02-21T13:31:29;4.05;;;1.10;;
9854;SDS011;4966;48.112;9.282;2024-02-21T13:33:55;2.97;;;1.33;;
9854;SDS011;4966;48.112;9.282;2024-02-21T13:36:20;4.45;;;1.20;;
9854;SDS011;4966;48.112;9.282;2024-02-21T13:38:45;3.15;;;1.50;;
9854;SDS011;4966;48.112;9.282;2024-02-21T13:41:12;2.58;;;1.40;;
9854;SDS011;4966;48.112;9.282;2024-02-21T13:43:37;2.13;;;1.25;;
9854;SDS011;4966;48.112;9.282;2024-02-21T13:46:02;3.83;;;1.60;;
9854;SDS011;4966;48.112;9.282;2024-02-21T13:48:30;4.35;;;1.80;;
9854;SDS011;4966;48.112;9.282;2024-02-21T13:50:55;2.28;;;1.10;;
9854;SDS011;4966;48.112;9.282;2024-02-21T13:53:21;2.50;;;1.25;;
9854;SDS011;4966;48.112;9.282;2024-02-21T13:55:47;5.95;;;1.98;;
9854;SDS011;4966;48.112;9.282;2024-02-21T13:58:13;6.43;;;2.03;;
9854;SDS011;4966;48.112;9.282;2024-02-21T14:00:39;5.05;;;1.42;;
9854;SDS011;4966;48.112;9.282;2024-02-21T14:03:04;2.08;;;0.98;;
9854;SDS011;4966;48.112;9.282;2024-02-21T14:05:29;2.33;;;1.27;;
9854;SDS011;4966;48.112;9.282;2024-02-21T14:07:55;4.38;;;1.40;;
9854;SDS011;4966;48.112;9.282;2024-02-21T14:10:21;3.40;;;1.35;;
9854;SDS011;4966;48.112;9.282;2024-02-21T14:12:46;4.07;;;1.05;;
9854;SDS011;4966;48.112;9.282;2024-02-21T14:15:13;3.15;;;1.30;;
9854;SDS011;4966;48.112;9.282;2024-02-21T14:17:38;4.10;;;1.20;;
9854;SDS011;4966;48.112;9.282;2024-02-21T14:20:04;2.28;;;1.00;;
9854;SDS011;4966;48.112;9.282;2024-02-21T14:22:30;3.42;;;1.70;;
9854;SDS011;4966;48.112;9.282;2024-02-21T14:24:55;4.22;;;1.20;;
9854;SDS011;4966;48.112;9.282;2024-02-21T14:27:21;3.13;;;1.40;;
9854;SDS011;4966;48.112;9.282;2024-02-21T14:29:47;3.15;;;1.33;;
9854;SDS011;4966;48.112;9.282;2024-02-21T14:32:12;3.45;;;1.73;;
9854;SDS011;4966;48.112;9.282;2024-02-21T14:34:38;2.78;;;1.50;;
9854;SDS011;4966;48.112;9.282;2024-02-21T14:37:03;4.00;;;1.80;;
9854;SDS011;4966;48.112;9.282;2024-02-21T14:39:29;5.80;;;1.13;;
9854;SDS011;4966;48.112;9.282;2024-02-21T14:41:54;2.67;;;1.50;;
9854;SDS011;4966;48.112;9.282;2024-02-21T14:44:20;2.95;;;1.13;;
9854;SDS011;4966;48.112;9.282;2024-02-21T14:46:45;3.45;;;1.30;;
9854;SDS011;4966;48.112;9.282;2024-02-21T14:49:11;3.28;;;1.30;;
9854;SDS011;4966;48.112;9.282;2024-02-21T14:51:36;2.65;;;1.38;;
9854;SDS011;4966;48.112;9.282;2024-02-21T14:54:02;1.90;;;1.00;;
9854;SDS011;4966;48.112;9.282;2024-02-21T14:56:27;2.50;;;1.30;;
9854;SDS011;4966;48.112;9.282;2024-02-21T14:58:52;4.47;;;2.00;;
9854;SDS011;4966;48.112;9.282;2024-02-21T15:01:17;4.50;;;1.52;;
9854;SDS011;4966;48.112;9.282;2024-02-21T15:03:43;2.90;;;1.23;;
9854;SDS011;4966;48.112;9.282;2024-02-21T15:06:08;4.15;;;1.00;;
9854;SDS011;4966;48.112;9.282;2024-02-21T15:08:33;2.92;;;1.40;;